Time;durP1;ratioP1;P1;durP2;ratioP2;P2;SDS_P1;SDS_P2;PMS_P1;PMS_P2;Temp;Humidity;BMP_temperature;BMP_pressure;BME280_temperature;BME280_humidity;BME280_pressure;Samples;Min_cycle;Max_cycle;Signal;HPM_P1;HPM_P2
2021/10/01 00:01:14;;;;;;;58.37;2.83;;;7.40;1.00;;;;;;5047810;28;20532;-72
2021/10/01 00:03:41;;;;;;;58.57;3.10;;;7.40;1.00;;;;;;5047783;28;20443;-72
2021/10/01 00:06:08;;;;;;;58.53;3.00;;;7.40;1.00;;;;;;5048239;28;20449;-72
2021/10/01 00:08:35;;;;;;;58.58;2.78;;;7.40;1.00;;;;;;5047984;28;20481;-72
2021/10/01 00:11:03;;;;;;;58.47;2.80;;;7.40;1.00;;;;;;5048116;28;20242;-72
2021/10/01 00:13:30;;;;;;;58.78;3.22;;;7.40;1.00;;;;;;5047922;28;20517;-72
2021/10/01 00:15:57;;;;;;;58.65;2.80;;;7.40;1.00;;;;;;5047766;28;20261;-72
2021/10/01 00:18:23;;;;;;;58.60;2.80;;;7.40;1.00;;;;;;5048039;28;20270;-72
2021/10/01 00:20:50;;;;;;;58.58;2.80;;;7.40;1.00;;;;;;5047868;28;20475;-72
2021/10/01 00:23:17;;;;;;;58.23;2.80;;;7.40;1.00;;;;;;5047896;28;20202;-72
2021/10/01 00:25:44;;;;;;;58.67;2.90;;;7.40;1.00;;;;;;5047889;28;20533;-72
2021/10/01 00:28:12;;;;;;;58.55;2.88;;;7.40;1.00;;;;;;5047643;28;21049;-72
2021/10/01 00:30:39;;;;;;;58.80;2.78;;;7.30;1.00;;;;;;5047337;27;20210;-72
2021/10/01 00:33:06;;;;;;;58.50;2.93;;;7.30;1.00;;;;;;5048082;28;20226;-72
2021/10/01 00:35:33;;;;;;;58.58;2.72;;;7.30;1.00;;;;;;5047574;28;20451;-72
2021/10/01 00:38:00;;;;;;;58.47;2.80;;;7.30;1.00;;;;;;5047989;28;20558;-72
2021/10/01 00:40:27;;;;;;;58.45;2.50;;;7.20;1.00;;;;;;5047536;27;20247;-72
2021/10/01 00:42:54;;;;;;;58.53;2.80;;;7.20;1.00;;;;;;5047555;28;20692;-71
2021/10/01 00:45:24;;;;;;;58.55;2.70;;;7.20;1.00;;;;;;5047242;28;20981;-71
2021/10/01 00:47:51;;;;;;;58.37;2.90;;;7.20;1.00;;;;;;5047736;28;20325;-71
2021/10/01 00:50:18;;;;;;;58.67;2.90;;;7.10;1.00;;;;;;5047567;28;20464;-71
2021/10/01 00:52:48;;;;;;;58.47;2.55;;;7.10;1.00;;;;;;5047866;28;20593;-71
2021/10/01 00:55:15;;;;;;;58.90;3.00;;;7.10;1.00;;;;;;5050835;28;20246;-71
2021/10/01 00:57:42;;;;;;;58.38;2.47;;;7.10;1.00;;;;;;5050734;28;20231;-71
2021/10/01 01:00:21;;;;;;;59.42;3.60;;;7.10;1.00;;;;;;5050026;27;20293;-71
2021/10/01 01:02:49;;;;;;;58.55;2.78;;;7.00;1.00;;;;;;5050683;28;20216;-72
2021/10/01 01:05:16;;;;;;;59.20;2.90;;;7.00;1.00;;;;;;5050660;28;20249;-72
2021/10/01 01:07:50;;;;;;;58.57;2.90;;;7.00;1.00;;;;;;5050523;28;20306;-72
2021/10/01 01:10:24;;;;;;;58.47;2.50;;;7.00;1.00;;;;;;5050594;28;20826;-72
2021/10/01 01:12:59;;;;;;;58.58;2.67;;;7.00;1.00;;;;;;5051206;27;20598;-72
2021/10/01 01:15:30;;;;;;;59.00;3.85;;;7.00;1.00;;;;;;5050533;28;20633;-72
2021/10/01 01:18:02;;;;;;;58.65;2.80;;;6.90;1.00;;;;;;5050874;28;20314;-72
2021/10/01 01:20:33;;;;;;;58.67;2.88;;;6.90;1.00;;;;;;5050698;27;20237;-72
2021/10/01 01:23:28;;;;;;;58.75;2.90;;;6.80;1.00;;;;;;5050542;28;20274;-72
2021/10/01 01:26:00;;;;;;;58.38;2.83;;;6.80;1.00;;;;;;5052342;28;20740;-72
2021/10/01 01:28:40;;;;;;;58.58;2.70;;;6.70;1.00;;;;;;5050639;28;20322;-70
2021/10/01 01:31:22;;;;;;;58.30;3.05;;;6.60;1.00;;;;;;5050662;28;20214;-70
2021/10/01 01:33:51;;;;;;;58.88;2.80;;;6.60;1.00;;;;;;5050101;27;20296;-71
2021/10/01 01:36:19;;;;;;;58.67;3.08;;;6.60;1.00;;;;;;5048253;27;20217;-72
2021/10/01 01:38:50;;;;;;;58.97;3.38;;;6.60;1.00;;;;;;5050524;28;20313;-72
2021/10/01 01:41:18;;;;;;;59.00;3.08;;;6.50;1.00;;;;;;5049848;27;20696;-72
2021/10/01 01:43:46;;;;;;;58.90;3.20;;;6.50;1.00;;;;;;5050182;28;20227;-72
2021/10/01 01:46:13;;;;;;;58.95;2.97;;;6.40;1.00;;;;;;5049840;28;20213;-72
2021/10/01 01:48:42;;;;;;;59.30;3.55;;;6.40;1.00;;;;;;5050684;28;20230;-72
2021/10/01 01:51:12;;;;;;;58.90;3.20;;;6.40;1.00;;;;;;5050212;28;20212;-72
2021/10/01 01:53:41;;;;;;;58.78;3.10;;;6.40;1.00;;;;;;5050236;28;20206;-72
2021/10/01 01:56:10;;;;;;;58.70;2.85;;;6.40;1.00;;;;;;5049842;28;20206;-72
2021/10/01 01:58:37;;;;;;;58.78;2.88;;;6.40;1.00;;;;;;5050428;28;20532;-72
2021/10/01 02:01:06;;;;;;;58.65;2.80;;;6.40;1.00;;;;;;5049961;27;20298;-72
2021/10/01 02:03:34;;;;;;;58.85;2.67;;;6.40;1.00;;;;;;5049856;28;20226;-72
2021/10/01 02:06:02;;;;;;;58.78;3.15;;;6.50;1.00;;;;;;5046975;27;20202;-72
2021/10/01 02:08:32;;;;;;;58.67;2.97;;;6.50;1.00;;;;;;5050068;28;20232;-72
2021/10/01 02:10:59;;;;;;;58.67;2.90;;;6.50;1.00;;;;;;5049978;28;20793;-72
2021/10/01 02:13:26;;;;;;;60.05;3.60;;;6.60;1.00;;;;;;5050183;28;20293;-72
2021/10/01 02:15:54;;;;;;;58.67;2.95;;;6.50;1.00;;;;;;5049507;28;20213;-72
2021/10/01 02:18:23;;;;;;;58.35;3.00;;;6.60;1.00;;;;;;5049649;27;20710;-72
2021/10/01 02:20:52;;;;;;;58.95;3.10;;;6.60;1.00;;;;;;5049574;27;20210;-72
2021/10/01 02:23:18;;;;;;;58.37;3.10;;;6.60;1.00;;;;;;5049657;28;20213;-72
2021/10/01 02:28:38;;;;;;;58.17;3.13;;;6.50;1.00;;;;;;5049757;28;20231;-72
2021/10/01 02:31:16;;;;;;;58.78;2.88;;;6.50;1.00;;;;;;5049414;28;20488;-72
2021/10/01 02:33:46;;;;;;;58.65;2.97;;;6.50;1.00;;;;;;5049890;28;20298;-72
2021/10/01 02:36:13;;;;;;;58.88;3.00;;;6.50;1.00;;;;;;5049698;28;20222;-72
2021/10/01 02:38:40;;;;;;;58.58;2.80;;;6.50;1.00;;;;;;5048777;27;20589;-72
2021/10/01 02:41:08;;;;;;;58.47;3.05;;;6.50;1.00;;;;;;5049450;28;20232;-72
2021/10/01 02:43:35;;;;;;;58.78;2.90;;;6.50;1.00;;;;;;5048943;27;20202;-71
2021/10/01 02:46:02;;;;;;;58.90;3.25;;;6.50;1.00;;;;;;5049264;28;20215;-71
2021/10/01 02:48:29;;;;;;;58.67;2.88;;;6.50;1.00;;;;;;5049297;28;20232;-72
2021/10/01 02:51:01;;;;;;;58.55;2.83;;;6.50;1.00;;;;;;5049398;28;20641;-72
2021/10/01 02:53:32;;;;;;;58.35;3.25;;;6.50;1.00;;;;;;5049786;28;20217;-72
2021/10/01 02:56:03;;;;;;;58.28;2.90;;;6.50;1.00;;;;;;5049037;28;20579;-72
2021/10/01 02:58:37;;;;;;;58.45;3.03;;;6.40;1.00;;;;;;5049235;28;20745;-72
2021/10/01 03:01:05;;;;;;;58.47;3.00;;;6.40;1.00;;;;;;5049111;28;20297;-72
2021/10/01 03:03:36;;;;;;;58.67;2.80;;;6.40;1.00;;;;;;5048892;27;20206;-72
2021/10/01 03:06:04;;;;;;;58.90;3.42;;;6.40;1.00;;;;;;5048740;28;20294;-72
2021/10/01 03:08:33;;;;;;;58.58;2.90;;;6.40;1.00;;;;;;5048714;28;20316;-72
2021/10/01 03:11:02;;;;;;;58.78;3.03;;;6.40;1.00;;;;;;5137213;27;20294;-71
2021/10/01 03:13:31;;;;;;;58.67;2.90;;;6.30;1.00;;;;;;5153978;27;20204;-71
2021/10/01 03:16:01;;;;;;;58.67;2.90;;;6.30;1.00;;;;;;5152968;27;20465;-71
2021/10/01 03:18:29;;;;;;;58.72;2.95;;;6.30;1.00;;;;;;5153626;27;20233;-71
2021/10/01 03:20:57;;;;;;;58.78;3.10;;;6.30;1.00;;;;;;5153531;27;20214;-71
2021/10/01 03:23:24;;;;;;;58.55;3.00;;;6.30;1.00;;;;;;5153260;27;20208;-71
2021/10/01 03:25:53;;;;;;;58.45;2.90;;;6.30;1.00;;;;;;5153011;27;20314;-72
2021/10/01 03:28:21;;;;;;;58.45;2.95;;;6.30;1.00;;;;;;5153619;27;20226;-72
2021/10/01 03:30:49;;;;;;;58.58;2.92;;;6.30;1.00;;;;;;5153428;27;20658;-72
2021/10/01 03:33:17;;;;;;;58.72;2.85;;;6.30;1.00;;;;;;5153544;27;20684;-72
2021/10/01 03:35:44;;;;;;;58.78;3.03;;;6.30;1.00;;;;;;5153009;27;20237;-72
2021/10/01 03:38:12;;;;;;;58.70;3.00;;;6.20;1.00;;;;;;5153393;27;20222;-72
2021/10/01 03:40:43;;;;;;;58.50;3.00;;;6.20;1.00;;;;;;5153566;27;20210;-72
2021/10/01 03:43:10;;;;;;;58.75;2.80;;;6.20;1.00;;;;;;5027170;28;20578;-72
2021/10/01 03:45:37;;;;;;;58.58;3.10;;;6.20;1.00;;;;;;5028248;28;20222;-72
2021/10/01 03:48:06;;;;;;;58.37;3.00;;;6.20;1.00;;;;;;5028233;28;20227;-72
2021/10/01 03:50:34;;;;;;;58.28;3.00;;;6.20;1.00;;;;;;5028992;28;20831;-71
2021/10/01 03:53:01;;;;;;;58.55;3.00;;;6.30;1.00;;;;;;5028466;28;20758;-71
2021/10/01 03:55:28;;;;;;;58.67;2.90;;;6.30;1.00;;;;;;5028235;28;20206;-71
2021/10/01 03:57:55;;;;;;;58.60;2.80;;;6.30;1.00;;;;;;5028366;28;20232;-71
2021/10/01 04:00:24;;;;;;;58.70;2.90;;;6.30;1.00;;;;;;5028314;28;20645;-71
2021/10/01 04:02:50;;;;;;;58.20;2.80;;;6.20;1.00;;;;;;5028585;28;20666;-70
2021/10/01 04:05:19;;;;;;;58.70;2.70;;;6.20;1.00;;;;;;5027928;28;20230;-71
2021/10/01 04:07:46;;;;;;;58.63;3.38;;;6.20;1.00;;;;;;5027858;28;20727;-71
2021/10/01 04:10:13;;;;;;;58.65;2.58;;;6.20;1.00;;;;;;5028646;28;20301;-71
2021/10/01 04:12:40;;;;;;;60.65;3.20;;;6.10;1.00;;;;;;5031431;27;21012;-71
2021/10/01 04:15:08;;;;;;;58.47;2.70;;;6.10;1.00;;;;;;5048324;28;20229;-72
2021/10/01 04:17:35;;;;;;;58.58;2.80;;;6.10;1.00;;;;;;5048253;28;20601;-72
2021/10/01 04:20:03;;;;;;;58.58;2.72;;;6.10;1.00;;;;;;5048128;28;20420;-72
2021/10/01 04:22:31;;;;;;;58.45;2.80;;;6.10;1.00;;;;;;5048538;28;20298;-71
2021/10/01 04:24:58;;;;;;;58.67;2.85;;;6.10;1.00;;;;;;5047685;27;20343;-71
2021/10/01 04:27:25;;;;;;;58.58;2.75;;;6.10;1.00;;;;;;5047123;28;20257;-71
2021/10/01 04:29:51;;;;;;;58.65;2.70;;;6.10;1.00;;;;;;5050746;28;20305;-71
2021/10/01 04:32:18;;;;;;;58.63;2.88;;;6.10;1.00;;;;;;5052080;28;20237;-71
2021/10/01 04:34:58;;;;;;;58.78;3.03;;;6.10;1.00;;;;;;5051438;28;20729;-71
2021/10/01 04:37:25;;;;;;;58.65;3.00;;;6.10;1.00;;;;;;5050861;28;20222;-71
2021/10/01 04:39:54;;;;;;;58.60;2.60;;;6.00;1.00;;;;;;5051358;28;20210;-71
2021/10/01 04:42:21;;;;;;;58.75;2.83;;;6.00;1.00;;;;;;5052108;28;20206;-71
2021/10/01 04:44:48;;;;;;;58.88;2.97;;;6.00;1.00;;;;;;5051050;27;20793;-71
2021/10/01 04:47:15;;;;;;;58.67;2.90;;;6.00;1.00;;;;;;5050784;28;20210;-71
2021/10/01 04:49:41;;;;;;;58.55;2.83;;;6.00;1.00;;;;;;5051347;28;20217;-71
2021/10/01 04:52:08;;;;;;;58.67;2.80;;;6.00;1.00;;;;;;5051374;28;20206;-71
2021/10/01 04:54:35;;;;;;;58.78;2.90;;;6.00;1.00;;;;;;5051759;28;20293;-71
2021/10/01 04:57:04;;;;;;;58.75;3.00;;;5.90;1.00;;;;;;5050939;28;20249;-71
2021/10/01 04:59:31;;;;;;;58.67;2.90;;;5.90;1.00;;;;;;5051425;28;20558;-72
2021/10/01 05:01:58;;;;;;;58.80;3.03;;;5.90;1.00;;;;;;5051028;28;20216;-72
2021/10/01 05:04:25;;;;;;;58.58;2.85;;;5.90;1.00;;;;;;5051187;28;20302;-72
2021/10/01 05:06:52;;;;;;;58.38;2.90;;;5.90;1.00;;;;;;5050379;27;20217;-71
2021/10/01 05:09:18;;;;;;;59.00;3.20;;;5.90;1.00;;;;;;5050528;28;20237;-71
2021/10/01 05:11:45;;;;;;;58.80;3.10;;;5.80;1.00;;;;;;5051050;28;20209;-71
2021/10/01 05:14:13;;;;;;;58.38;3.00;;;5.80;1.00;;;;;;5051076;28;20206;-71
2021/10/01 05:16:43;;;;;;;58.65;2.95;;;5.80;1.00;;;;;;5049965;27;20202;-71
2021/10/01 05:19:09;;;;;;;58.72;3.00;;;5.80;1.00;;;;;;5050808;27;20348;-71
2021/10/01 05:21:36;;;;;;;58.80;3.00;;;5.80;1.00;;;;;;5050753;28;20305;-71
2021/10/01 05:24:03;;;;;;;58.67;2.80;;;5.80;1.00;;;;;;5050838;28;20210;-71
2021/10/01 05:26:30;;;;;;;58.45;3.00;;;5.80;1.00;;;;;;5050215;27;20237;-71
2021/10/01 05:28:57;;;;;;;58.60;2.97;;;5.80;1.00;;;;;;5050140;28;20229;-71
2021/10/01 05:31:26;;;;;;;58.60;2.72;;;5.80;1.00;;;;;;5050431;28;20217;-71
2021/10/01 05:33:53;;;;;;;58.50;2.85;;;5.80;1.00;;;;;;5050583;28;20209;-71
2021/10/01 05:36:20;;;;;;;58.70;2.75;;;5.80;1.00;;;;;;5050044;28;20740;-71
2021/10/01 05:38:47;;;;;;;58.25;3.10;;;5.80;1.00;;;;;;5050880;28;20226;-72
2021/10/01 05:41:13;;;;;;;58.58;2.80;;;5.80;1.00;;;;;;5049579;28;20407;-72
2021/10/01 05:43:40;;;;;;;58.67;3.00;;;5.80;1.00;;;;;;5050529;28;20206;-72
2021/10/01 05:46:08;;;;;;;58.65;3.03;;;5.80;1.00;;;;;;5049906;27;20675;-72
2021/10/01 05:48:40;;;;;;;58.58;3.08;;;5.80;1.00;;;;;;5049116;27;20230;-72
2021/10/01 05:51:08;;;;;;;58.70;3.10;;;5.80;1.00;;;;;;5050435;28;20222;-72
2021/10/01 05:53:48;;;;;;;58.70;2.90;;;5.90;1.00;;;;;;5050190;28;20297;-72
2021/10/01 05:56:17;;;;;;;58.78;3.00;;;5.90;1.00;;;;;;5049982;28;20562;-72
2021/10/01 05:58:44;;;;;;;58.65;3.28;;;5.90;1.00;;;;;;5049933;28;20261;-72
2021/10/01 06:01:11;;;;;;;59.10;3.70;;;6.00;1.00;;;;;;5049970;28;20289;-72
2021/10/01 06:03:39;;;;;;;58.38;3.10;;;6.00;1.00;;;;;;5050345;28;20245;-72
2021/10/01 06:06:06;;;;;;;58.50;3.00;;;6.00;1.00;;;;;;5049557;27;20791;-72
2021/10/01 06:08:33;;;;;;;59.92;3.50;;;6.10;1.00;;;;;;5050000;28;20927;-72
2021/10/01 06:11:00;;;;;;;58.60;2.80;;;6.10;1.00;;;;;;5049948;28;20301;-72
2021/10/01 06:13:27;;;;;;;58.50;3.00;;;6.20;1.00;;;;;;5050140;28;20213;-72
2021/10/01 06:15:54;;;;;;;58.60;2.83;;;6.20;1.00;;;;;;5049552;28;20212;-72
2021/10/01 06:18:21;;;;;;;58.40;2.63;;;6.20;1.00;;;;;;5049734;28;20232;-73
2021/10/01 06:20:50;;;;;;;58.58;3.10;;;6.30;1.00;;;;;;5048037;27;20214;-72
2021/10/01 06:23:18;;;;;;;58.70;3.08;;;6.30;1.00;;;;;;5050017;28;20237;-72
2021/10/01 06:25:45;;;;;;;58.58;2.92;;;6.40;1.00;;;;;;5049524;27;20686;-72
2021/10/01 06:28:13;;;;;;;58.47;2.70;;;6.40;1.00;;;;;;5049679;28;20239;-72
2021/10/01 06:30:40;;;;;;;58.67;3.05;;;6.40;1.00;;;;;;5049245;28;20289;-72
2021/10/01 06:33:07;;;;;;;59.85;3.55;;;6.40;1.00;;;;;;5049863;28;20245;-70
2021/10/01 06:35:34;;;;;;;58.55;2.83;;;6.40;1.00;;;;;;5049404;27;20229;-71
2021/10/01 06:38:03;;;;;;;58.72;3.05;;;6.40;1.00;;;;;;5049267;28;20675;-70
2021/10/01 06:40:30;;;;;;;58.45;3.10;;;6.40;1.00;;;;;;5049779;28;20301;-72
2021/10/01 06:42:57;;;;;;;58.78;2.90;;;6.50;1.00;;;;;;5049417;28;20211;-72
2021/10/01 06:45:26;;;;;;;58.55;2.90;;;6.50;1.00;;;;;;5049497;28;20229;-72
2021/10/01 06:47:59;;;;;;;58.22;3.10;;;6.60;1.00;;;;;;5049073;27;20237;-71
2021/10/01 06:50:43;;;;;;;58.58;2.97;;;6.70;1.00;;;;;;5049014;27;20701;-72
2021/10/01 08:18:24;;;;;;;58.60;2.93;;;8.90;1.00;;;;;;5090742;27;20572;-71
2021/10/01 08:21:46;;;;;;;60.10;3.30;;;10.70;1.00;;;;;;5133002;27;20444;-71
2021/10/01 08:24:14;;;;;;;58.13;2.80;;;10.90;1.00;;;;;;5149384;27;20451;-71
2021/10/01 08:26:41;;;;;;;58.40;3.30;;;11.00;1.00;;;;;;5147416;27;20534;-71
2021/10/01 08:29:08;;;;;;;58.23;2.80;;;11.20;1.00;;;;;;5148655;27;20554;-71
2021/10/01 08:31:37;;;;;;;58.60;3.27;;;11.40;1.00;;;;;;5148860;27;20998;-71
2021/10/01 08:34:04;;;;;;;58.17;2.77;;;11.60;1.00;;;;;;5149217;27;20444;-71
2021/10/01 08:36:31;;;;;;;58.20;2.60;;;11.70;1.00;;;;;;5142335;27;20474;-71
2021/10/01 08:38:57;;;;;;;58.20;2.60;;;11.90;1.00;;;;;;5134826;27;20460;-71
2021/10/01 08:41:25;;;;;;;58.17;2.57;;;12.10;1.00;;;;;;5135115;27;20531;-72
2021/10/01 08:43:52;;;;;;;58.30;2.60;;;12.20;1.00;;;;;;5135245;27;20440;-72
2021/10/01 08:46:19;;;;;;;58.23;2.50;;;12.30;1.00;;;;;;5135092;27;20575;-72
2021/10/01 08:48:48;;;;;;;58.03;2.80;;;12.50;1.00;;;;;;5134727;27;20470;-72
2021/10/01 08:51:15;;;;;;;58.27;2.67;;;12.60;1.00;;;;;;5135019;27;20686;-72
2021/10/01 08:53:43;;;;;;;58.30;3.10;;;12.70;1.00;;;;;;5135036;27;20823;-72
2021/10/01 08:56:10;;;;;;;58.33;2.70;;;12.80;1.00;;;;;;5134675;27;20438;-72
2021/10/01 08:58:37;;;;;;;58.30;2.60;;;12.90;1.00;;;;;;5132973;27;20475;-72
2021/10/01 09:01:05;;;;;;;58.37;2.70;;;13.00;1.00;;;;;;5134819;27;20537;-72
2021/10/01 09:03:32;;;;;;;58.17;2.73;;;13.10;1.00;;;;;;5134795;27;21019;-72
2021/10/01 09:06:00;;;;;;;58.17;2.70;;;13.20;1.00;;;;;;5134500;27;20487;-72
2021/10/01 09:08:29;;;;;;;58.37;2.70;;;13.30;1.00;;;;;;5134155;27;20538;-72
2021/10/01 09:10:57;;;;;;;58.20;2.80;;;13.40;1.00;;;;;;5134050;27;20448;-72
2021/10/01 09:13:24;;;;;;;58.17;2.67;;;13.50;1.00;;;;;;5134458;27;20448;-72
2021/10/01 09:15:59;;;;;;;57.97;2.40;;;13.70;1.00;;;;;;5134377;27;20441;-72
2021/10/01 09:18:27;;;;;;;58.03;2.63;;;13.90;1.00;;;;;;5134330;27;20968;-72
2021/10/01 09:21:09;;;;;;;58.27;2.60;;;14.20;1.00;;;;;;5134342;27;20445;-72
2021/10/01 09:23:42;;;;;;;58.23;2.57;;;14.30;1.00;;;;;;5134369;27;20534;-72
2021/10/01 09:26:11;;;;;;;58.27;2.57;;;14.50;1.00;;;;;;5134283;27;20486;-71
2021/10/01 09:28:50;;;;;;;58.37;2.97;;;14.80;1.00;;;;;;5134210;27;20605;-71
2021/10/01 09:31:38;;;;;;;58.33;3.00;;;15.10;1.00;;;;;;5135255;27;20533;-71
2021/10/01 09:34:07;;;;;;;58.07;2.60;;;15.50;1.00;;;;;;5134707;27;20442;-71
2021/10/01 09:36:36;;;;;;;58.60;2.97;;;16.20;1.00;;;;;;5134481;27;20446;-71
2021/10/01 09:39:03;;;;;;;58.23;2.60;;;17.00;1.00;;;;;;5134530;27;20467;-71
2021/10/01 09:41:34;;;;;;;57.97;2.80;;;18.10;1.00;;;;;;5134722;27;20448;-71
2021/10/01 09:44:07;;;;;;;57.90;2.67;;;19.10;1.00;;;;;;5134520;27;20617;-71
2021/10/01 09:46:36;;;;;;;57.63;2.57;;;20.00;1.00;;;;;;5133997;27;20487;-71
2021/10/01 09:49:03;;;;;;;58.50;2.60;;;20.90;1.00;;;;;;5133697;27;20492;-71
2021/10/01 09:51:30;;;;;;;58.40;2.40;;;21.70;1.00;;;;;;5134259;27;20956;-69
2021/10/01 09:54:01;;;;;;;57.77;2.60;;;22.40;1.00;;;;;;5134224;27;20536;-71
2021/10/01 09:56:31;;;;;;;57.87;2.50;;;23.10;1.00;;;;;;5133882;27;20437;-71
2021/10/01 09:59:06;;;;;;;57.87;2.33;;;23.80;1.00;;;;;;5133924;27;20470;-69
2021/10/01 10:01:33;;;;;;;57.57;2.20;;;24.30;1.00;;;;;;5134323;27;20492;-70
2021/10/01 10:04:14;;;;;;;57.77;2.20;;;24.60;1.00;;;;;;5134167;27;20449;-70
2021/10/01 10:06:44;;;;;;;57.73;2.20;;;25.00;1.00;;;;;;5133695;27;20482;-70
2021/10/01 10:09:12;;;;;;;58.00;2.33;;;25.80;1.00;;;;;;5133678;27;20997;-70
2021/10/01 10:11:40;;;;;;;57.73;2.20;;;26.40;1.00;;;;;;5133845;27;20935;-71
2021/10/01 10:14:12;;;;;;;57.57;2.00;;;26.90;1.00;;;;;;5133733;27;20455;-71
2021/10/01 10:16:40;;;;;;;57.90;2.10;;;27.20;1.00;;;;;;5133481;27;20439;-71
2021/10/01 10:19:11;;;;;;;57.90;2.10;;;27.70;1.00;;;;;;5133506;27;20461;-71
2021/10/01 10:21:39;;;;;;;57.63;2.30;;;28.10;1.00;;;;;;5133612;27;20453;-71
2021/10/01 10:24:06;;;;;;;57.90;3.53;;;28.30;1.00;;;;;;5133362;27;20537;-71
2021/10/01 10:26:35;;;;;;;57.80;2.20;;;28.40;1.00;;;;;;5133391;27;20514;-71
2021/10/01 10:29:04;;;;;;;57.27;2.07;;;28.60;1.00;;;;;;5133540;27;20502;-71
2021/10/01 10:31:34;;;;;;;57.70;2.00;;;28.90;1.00;;;;;;5133604;27;20524;-71
2021/10/01 10:34:00;;;;;;;57.37;2.10;;;29.20;1.00;;;;;;5133436;27;20454;-71
2021/10/01 10:36:34;;;;;;;57.40;2.07;;;29.40;1.00;;;;;;5132815;27;20477;-70
2021/10/01 10:39:36;;;;;;;57.27;1.73;;;29.50;1.00;;;;;;5133408;27;20464;-70
2021/10/01 10:42:13;;;;;;;57.33;2.03;;;29.60;1.00;;;;;;5130783;27;20462;-70
2021/10/01 10:44:44;;;;;;;57.17;2.00;;;29.60;1.00;;;;;;5133224;27;20535;-71
2021/10/01 10:47:12;;;;;;;57.20;2.00;;;29.30;1.00;;;;;;5133048;27;20862;-71
2021/10/01 10:49:39;;;;;;;57.33;1.90;;;29.20;1.00;;;;;;5133323;27;20533;-72
2021/10/01 10:52:09;;;;;;;59.40;3.70;;;29.40;1.00;;;;;;5133178;27;20538;-70
2021/10/01 10:54:39;;;;;;;57.40;2.00;;;30.20;1.00;;;;;;5133166;27;20448;-71
2021/10/01 10:57:29;;;;;;;57.33;2.27;;;30.90;1.00;;;;;;5132473;27;20480;-71
2021/10/01 10:59:58;;;;;;;57.17;2.03;;;31.20;1.00;;;;;;5132901;27;20453;-71
2021/10/01 11:02:28;;;;;;;57.70;3.20;;;31.50;1.00;;;;;;5132954;27;20933;-71
2021/10/01 11:05:19;;;;;;;57.13;1.97;;;31.80;1.00;;;;;;5133084;27;20452;-70
2021/10/01 11:07:49;;;;;;;56.97;1.73;;;32.20;1.00;;;;;;5132851;27;20821;-71
2021/10/01 11:10:37;;;;;;;57.13;1.90;;;32.50;1.00;;;;;;5132888;27;20936;-71
2021/10/01 11:13:31;;;;;;;57.13;2.20;;;32.60;1.00;;;;;;5133013;27;20468;-71
2021/10/01 11:16:18;;;;;;;57.07;1.90;;;32.20;1.00;;;;;;5132303;27;20486;-70
2021/10/01 11:19:04;;;;;;;57.17;1.90;;;31.60;1.00;;;;;;5132670;27;20475;-70
2021/10/01 11:21:33;;;;;;;57.30;1.90;;;31.70;1.00;;;;;;5132718;27;20531;-70
2021/10/01 11:24:03;;;;;;;57.57;2.20;;;31.90;99.90;;;;;;5132670;28;20884;-71
2021/10/01 11:26:31;;;;;;;57.30;2.00;;;32.10;1.00;;;;;;5132310;28;20928;-70
2021/10/01 11:29:00;;;;;;;56.87;1.90;;;32.90;1.00;;;;;;5132811;28;20468;-71
2021/10/01 11:31:36;;;;;;;56.97;1.90;;;33.60;1.00;;;;;;5132604;28;20944;-71
2021/10/01 11:34:03;;;;;;;56.77;1.83;;;34.30;1.00;;;;;;5132802;28;20483;-71
2021/10/01 11:36:31;;;;;;;57.30;2.00;;;34.60;99.90;;;;;;5132196;28;20571;-71
2021/10/01 11:39:06;;;;;;;57.70;2.30;;;34.40;99.90;;;;;;5132479;28;20842;-71
2021/10/01 11:41:33;;;;;;;57.17;2.30;;;34.40;99.90;;;;;;5132582;28;20440;-72
2021/10/01 11:44:03;;;;;;;56.93;1.80;;;33.90;99.90;;;;;;5132719;28;20444;-72
2021/10/01 11:46:32;;;;;;;57.53;2.53;;;33.80;1.00;;;;;;5132602;28;20468;-70
2021/10/01 11:49:03;;;;;;;57.00;1.93;;;34.30;1.00;;;;;;5132347;28;20472;-70
2021/10/01 11:51:31;;;;;;;57.03;1.83;;;34.50;1.00;;;;;;5132385;28;20468;-71
2021/10/01 11:54:13;;;;;;;56.97;1.80;;;34.50;1.00;;;;;;5132485;28;20445;-71
2021/10/01 11:56:40;;;;;;;56.97;1.90;;;34.60;1.00;;;;;;5131981;28;20489;-71
2021/10/01 11:59:09;;;;;;;56.77;1.70;;;34.60;99.90;;;;;;5132387;28;20487;-71
2021/10/01 12:01:36;;;;;;;56.67;1.77;;;34.70;1.00;;;;;;5132355;28;20535;-70
2021/10/01 12:04:03;;;;;;;57.00;1.70;;;34.70;1.00;;;;;;5132625;28;20444;-71
2021/10/01 12:06:35;;;;;;;56.73;1.90;;;34.60;1.00;;;;;;5132048;28;20561;-71
2021/10/01 12:09:04;;;;;;;56.80;1.90;;;34.80;1.00;;;;;;5132489;28;20496;-71
2021/10/01 12:11:33;;;;;;;56.97;1.70;;;34.80;1.00;;;;;;5133563;27;20444;-71
2021/10/01 12:14:12;;;;;;;56.87;1.90;;;34.80;99.90;;;;;;5136293;27;20531;-71
2021/10/01 12:16:39;;;;;;;56.77;2.00;;;34.80;99.90;;;;;;5135860;27;20831;-71
2021/10/01 12:19:07;;;;;;;56.67;1.97;;;35.00;99.90;;;;;;5136121;27;21029;-71
2021/10/01 12:21:36;;;;;;;56.87;1.90;;;35.00;99.90;;;;;;5136048;27;20480;-71
2021/10/01 12:24:09;;;;;;;58.00;1.97;;;35.10;1.00;;;;;;5135842;27;20441;-71
2021/10/01 12:26:37;;;;;;;57.03;1.90;;;35.10;99.90;;;;;;5135518;27;20538;-71
2021/10/01 12:29:14;;;;;;;56.57;1.90;;;35.40;1.00;;;;;;5135974;27;20898;-71
2021/10/01 12:31:44;;;;;;;56.53;1.80;;;36.30;1.00;;;;;;5136035;27;20999;-69
2021/10/01 12:34:17;;;;;;;57.17;2.27;;;36.70;99.90;;;;;;5136228;27;20451;-71
2021/10/01 12:36:44;;;;;;;56.67;1.77;;;36.70;99.90;;;;;;5135767;27;21071;-71
2021/10/01 12:39:11;;;;;;;56.73;1.90;;;36.60;99.90;;;;;;5135541;27;20544;-71
2021/10/01 12:41:39;;;;;;;56.77;1.80;;;36.90;99.90;;;;;;5135582;27;20535;-71
2021/10/01 12:44:10;;;;;;;56.77;2.00;;;37.20;99.90;;;;;;5134739;27;20543;-71
2021/10/01 12:46:49;;;;;;;56.87;2.00;;;37.10;99.90;;;;;;5135016;27;20471;-71
2021/10/01 12:49:27;;;;;;;56.77;1.87;;;37.10;99.90;;;;;;5138308;27;20456;-71
2021/10/01 12:52:06;;;;;;;56.83;2.07;;;37.00;99.90;;;;;;5137024;27;20432;-71
2021/10/01 12:54:35;;;;;;;56.70;1.90;;;36.90;99.90;;;;;;5135804;27;20445;-71
2021/10/01 12:57:10;;;;;;;56.67;1.80;;;36.90;99.90;;;;;;5134285;27;20575;-71
2021/10/01 12:59:37;;;;;;;56.80;1.93;;;36.90;99.90;;;;;;5135130;27;20440;-71
2021/10/01 13:02:11;;;;;;;56.77;1.80;;;37.30;99.90;;;;;;5135325;27;20815;-71
2021/10/01 13:04:57;;;;;;;56.77;1.90;;;37.60;99.90;;;;;;5135334;27;20449;-71
2021/10/01 13:07:35;;;;;;;56.67;2.00;;;37.30;99.90;;;;;;5133283;27;20795;-71
2021/10/01 13:10:16;;;;;;;56.67;2.00;;;37.30;1.00;;;;;;5135214;27;20808;-71
2021/10/01 13:12:47;;;;;;;56.57;1.93;;;37.20;99.90;;;;;;5134969;27;20455;-71
2021/10/01 13:15:24;;;;;;;56.87;1.97;;;36.90;99.90;;;;;;5135237;27;20448;-71
2021/10/01 13:18:05;;;;;;;56.60;1.90;;;36.70;99.90;;;;;;5134746;27;20567;-70
2021/10/01 13:20:34;;;;;;;56.57;1.90;;;36.50;99.90;;;;;;5135002;27;20480;-70
2021/10/01 13:23:03;;;;;;;56.67;1.80;;;36.50;99.90;;;;;;5134549;27;20451;-70
2021/10/01 13:25:33;;;;;;;56.67;1.90;;;36.50;99.90;;;;;;5134490;27;20488;-71
2021/10/01 13:28:01;;;;;;;57.00;1.80;;;36.10;99.90;;;;;;5134551;27;20914;-70
2021/10/01 13:30:29;;;;;;;56.67;1.80;;;35.60;99.90;;;;;;5134824;27;20447;-70
2021/10/01 13:32:57;;;;;;;56.80;1.80;;;35.40;99.90;;;;;;5134794;27;20445;-70
2021/10/01 13:35:26;;;;;;;56.90;1.90;;;35.30;99.90;;;;;;5134321;27;20448;-70
2021/10/01 13:37:53;;;;;;;56.90;1.53;;;35.50;1.00;;;;;;5134689;27;20484;-70
2021/10/01 13:40:21;;;;;;;56.67;1.60;;;35.70;99.90;;;;;;5134731;27;20436;-71
2021/10/01 13:42:48;;;;;;;57.30;3.10;;;36.10;99.90;;;;;;5134548;27;20475;-70
2021/10/01 13:45:15;;;;;;;56.70;1.90;;;36.60;1.00;;;;;;5134072;27;20445;-70
2021/10/01 13:47:42;;;;;;;56.47;1.60;;;36.60;99.90;;;;;;5133229;27;20514;-70
2021/10/01 13:50:11;;;;;;;56.83;1.97;;;36.70;1.00;;;;;;5134204;27;20440;-70
2021/10/01 13:52:39;;;;;;;56.80;1.87;;;36.70;99.90;;;;;;5134291;27;20815;-70
2021/10/01 13:55:09;;;;;;;56.50;1.70;;;36.40;99.90;;;;;;5134348;27;20466;-70
2021/10/01 13:57:36;;;;;;;56.97;1.90;;;35.70;1.00;;;;;;5133869;27;20488;-70
2021/10/01 14:00:05;;;;;;;56.70;1.93;;;35.60;1.00;;;;;;5134269;27;20969;-71
2021/10/01 14:02:35;;;;;;;56.87;1.87;;;35.30;1.00;;;;;;5134026;27;20540;-71
2021/10/01 14:05:02;;;;;;;56.87;1.77;;;35.00;99.90;;;;;;5134334;27;20543;-71
2021/10/01 14:07:29;;;;;;;57.30;1.80;;;34.50;99.90;;;;;;5133769;27;20463;-72
2021/10/01 14:10:00;;;;;;;57.17;2.03;;;33.90;99.90;;;;;;5134034;27;20476;-72
2021/10/01 14:12:27;;;;;;;57.17;2.00;;;33.70;99.90;;;;;;5133973;27;20449;-72
2021/10/01 14:14:54;;;;;;;56.93;1.80;;;33.80;1.00;;;;;;5133973;27;20476;-72
2021/10/01 14:17:21;;;;;;;57.60;2.00;;;34.00;1.00;;;;;;5133219;27;20487;-70
2021/10/01 14:19:48;;;;;;;57.03;1.80;;;34.20;99.90;;;;;;5133949;27;20448;-70
2021/10/01 14:22:15;;;;;;;57.00;1.90;;;34.50;1.00;;;;;;5134113;27;20531;-70
2021/10/01 14:24:42;;;;;;;56.77;1.93;;;34.70;1.00;;;;;;5133611;27;20802;-71
2021/10/01 14:27:10;;;;;;;56.80;1.90;;;35.00;1.00;;;;;;5133234;27;20451;-71
2021/10/01 14:29:38;;;;;;;57.07;1.87;;;35.20;1.00;;;;;;5133559;27;20528;-71
2021/10/01 14:32:05;;;;;;;57.20;1.97;;;34.80;1.00;;;;;;5133755;27;20536;-71